createdAt,value
2023-10-18T00:00:26.666Z,4.55
2023-10-18T00:02:55.363Z,4.07
2023-10-18T00:05:23.994Z,3.42
2023-10-18T00:07:53.151Z,3.05
2023-10-18T00:10:22.803Z,3.72
2023-10-18T00:12:53.964Z,2.90
2023-10-18T00:15:22.187Z,3.38
2023-10-18T00:17:50.252Z,2.63
2023-10-18T00:20:22.192Z,3.15
2023-10-18T00:22:50.173Z,2.78
2023-10-18T00:25:18.256Z,2.95
2023-10-18T00:27:47.264Z,2.78
2023-10-18T00:30:19.368Z,3.05
2023-10-18T00:32:47.849Z,2.15
2023-10-18T00:35:19.943Z,3.20
2023-10-18T00:37:49.057Z,2.65
2023-10-18T00:40:34.434Z,4.32
2023-10-18T00:43:08.840Z,3.22
2023-10-18T00:45:45.212Z,3.20
2023-10-18T00:48:14.440Z,3.05
2023-10-18T00:50:44.793Z,3.15
2023-10-18T00:53:18.557Z,4.15
2023-10-18T00:55:46.993Z,3.53
2023-10-18T00:58:16.692Z,4.03
2023-10-18T01:00:46.422Z,3.20
2023-10-18T01:03:16.790Z,2.72
2023-10-18T01:06:02.163Z,4.53
2023-10-18T01:08:31.513Z,3.78
2023-10-18T01:11:04.969Z,3.20
2023-10-18T01:13:35.860Z,3.22
2023-10-18T01:16:08.194Z,2.72
2023-10-18T01:18:36.147Z,3.33
2023-10-18T01:21:15.458Z,2.92
2023-10-18T01:23:50.707Z,3.80
2023-10-18T01:26:20.771Z,3.30
2023-10-18T01:28:48.989Z,2.25
2023-10-18T01:31:17.024Z,3.50
2023-10-18T01:33:47.249Z,3.15
2023-10-18T01:36:16.616Z,4.05
2023-10-18T01:38:47.300Z,2.75
2023-10-18T01:41:18.153Z,2.67
2023-10-18T01:43:49.050Z,3.08
2023-10-18T01:46:17.494Z,3.00
2023-10-18T01:48:51.694Z,3.13
2023-10-18T01:51:20.520Z,3.60
2023-10-18T01:53:51.591Z,3.25
2023-10-18T01:56:21.265Z,4.03
2023-10-18T01:58:50.506Z,3.45
2023-10-18T02:01:18.477Z,4.82
2023-10-18T02:03:47.030Z,4.03
2023-10-18T02:06:16.707Z,3.38
2023-10-18T02:08:44.898Z,3.22
2023-10-18T02:11:13.079Z,2.35
2023-10-18T02:13:42.896Z,3.05
2023-10-18T02:16:16.512Z,2.38
2023-10-18T02:18:47.800Z,2.47
2023-10-18T02:23:48.014Z,3.40
2023-10-18T02:26:31.611Z,2.50
2023-10-18T02:29:00.876Z,3.25
2023-10-18T02:31:31.591Z,3.00
2023-10-18T02:33:59.482Z,3.88
2023-10-18T02:36:34.251Z,2.85
2023-10-18T02:39:02.300Z,3.47
2023-10-18T02:41:30.785Z,2.85
2023-10-18T02:43:59.561Z,3.15
2023-10-18T02:46:28.100Z,3.28
2023-10-18T02:48:58.621Z,3.63
2023-10-18T02:51:28.061Z,3.30
2023-10-18T02:54:04.044Z,4.50
2023-10-18T02:56:34.177Z,3.55
2023-10-18T02:59:08.109Z,2.85
2023-10-18T03:01:38.008Z,2.05
2023-10-18T03:04:09.990Z,2.75
2023-10-18T03:06:38.710Z,2.47
2023-10-18T03:09:15.372Z,3.10
2023-10-18T03:11:43.908Z,3.95
2023-10-18T03:14:13.631Z,3.42
2023-10-18T03:16:42.649Z,2.53
2023-10-18T03:19:13.421Z,2.70
2023-10-18T03:21:43.138Z,3.15
2023-10-18T03:24:13.497Z,4.15
2023-10-18T03:26:42.187Z,2.25
2023-10-18T03:29:13.452Z,2.67
2023-10-18T03:34:16.275Z,2.72
2023-10-18T03:36:53.319Z,2.53
2023-10-18T03:39:22.144Z,3.65
2023-10-18T03:41:51.819Z,2.97
2023-10-18T03:44:28.024Z,2.75
2023-10-18T03:47:04.679Z,2.63
2023-10-18T03:49:37.830Z,4.10
2023-10-18T03:52:18.633Z,3.13
2023-10-18T03:54:48.682Z,3.15
2023-10-18T03:57:20.114Z,4.32
2023-10-18T03:59:50.345Z,2.35
2023-10-18T04:02:27.482Z,3.92
2023-10-18T04:05:01.029Z,3.13
2023-10-18T04:07:30.701Z,3.53
2023-10-18T04:10:13.108Z,4.03
2023-10-18T04:12:44.801Z,3.92
2023-10-18T04:15:20.536Z,2.30
2023-10-18T04:17:51.067Z,4.47
2023-10-18T04:20:24.907Z,3.90
2023-10-18T04:22:54.373Z,4.57
2023-10-18T04:25:27.967Z,2.88
2023-10-18T04:27:55.770Z,3.92
2023-10-18T04:30:24.576Z,2.85
2023-10-18T04:32:59.870Z,2.47
2023-10-18T04:35:30.658Z,1.80
2023-10-18T04:37:58.462Z,2.85
2023-10-18T04:40:27.351Z,2.75
2023-10-18T04:42:57.734Z,3.03
2023-10-18T04:45:27.716Z,3.28
2023-10-18T04:48:07.332Z,3.17
2023-10-18T04:50:35.510Z,3.10
2023-10-18T04:53:11.839Z,4.30
2023-10-18T04:55:42.588Z,2.40
2023-10-18T04:58:12.804Z,2.42
2023-10-18T05:00:53.347Z,2.85
2023-10-18T05:03:21.415Z,3.15
2023-10-18T05:05:53.832Z,4.25
2023-10-18T05:08:21.631Z,3.42
2023-10-18T05:10:53.103Z,5.15
2023-10-18T05:13:33.462Z,3.25
2023-10-18T05:16:02.415Z,4.05
2023-10-18T05:18:31.269Z,4.28
2023-10-18T05:21:00.403Z,5.20
2023-10-18T05:23:28.168Z,4.13
2023-10-18T05:26:09.676Z,4.32
2023-10-18T05:28:48.186Z,3.17
2023-10-18T05:31:33.528Z,3.38
2023-10-18T05:34:05.923Z,2.95
2023-10-18T05:36:43.880Z,2.70
2023-10-18T05:42:04.612Z,3.10
2023-10-18T05:44:32.652Z,2.55
2023-10-18T05:47:01.039Z,3.15
2023-10-18T05:49:35.556Z,6.78
2023-10-18T05:52:18.701Z,2.97
2023-10-18T05:54:47.732Z,3.85
2023-10-18T05:57:20.270Z,2.75
2023-10-18T05:59:50.004Z,2.80
2023-10-18T06:02:24.067Z,3.58
2023-10-18T06:04:56.155Z,4.60
2023-10-18T06:07:28.221Z,3.38
2023-10-18T06:10:01.886Z,3.60
2023-10-18T06:12:31.638Z,3.72
2023-10-18T06:15:13.681Z,3.20
2023-10-18T06:17:48.706Z,2.70
2023-10-18T06:20:25.139Z,2.92
2023-10-18T06:23:08.264Z,3.47
2023-10-18T06:25:37.000Z,3.13
2023-10-18T06:28:08.177Z,4.25
2023-10-18T06:30:41.126Z,3.45
2023-10-18T06:33:14.087Z,3.83
2023-10-18T06:35:46.303Z,3.25
2023-10-18T06:38:18.864Z,2.15
2023-10-18T06:41:04.442Z,3.03
2023-10-18T06:43:33.619Z,2.80
2023-10-18T06:46:01.565Z,2.90
2023-10-18T06:48:30.386Z,3.17
2023-10-18T06:50:58.856Z,6.47
2023-10-18T06:53:28.180Z,3.53
2023-10-18T06:56:02.930Z,3.22
2023-10-18T06:58:43.323Z,3.25
2023-10-18T07:01:15.862Z,3.78
2023-10-18T07:03:45.017Z,2.58
2023-10-18T07:06:19.592Z,3.75
2023-10-18T07:08:51.195Z,1.67
2023-10-18T07:11:26.219Z,2.33
2023-10-18T07:13:55.398Z,2.42
2023-10-18T07:16:37.110Z,4.18
2023-10-18T07:19:22.545Z,3.08
2023-10-18T07:21:50.950Z,2.05
2023-10-18T07:24:21.901Z,3.80
2023-10-18T07:26:50.702Z,4.70
2023-10-18T07:29:22.067Z,6.05
2023-10-18T07:31:50.010Z,2.50
2023-10-18T07:34:27.089Z,3.60
2023-10-18T07:36:55.798Z,2.88
2023-10-18T07:39:26.752Z,2.33
2023-10-18T07:41:56.291Z,4.15
2023-10-18T07:44:24.410Z,5.35
2023-10-18T07:46:52.115Z,2.67
2023-10-18T07:49:20.288Z,2.95
2023-10-18T07:51:56.971Z,2.85
2023-10-18T07:54:26.104Z,3.35
2023-10-18T07:56:55.295Z,3.30
2023-10-18T07:59:31.872Z,3.35
2023-10-18T08:02:20.774Z,5.70
2023-10-18T08:04:49.416Z,2.63
2023-10-18T08:07:21.128Z,4.30
2023-10-18T08:09:52.663Z,3.55
2023-10-18T08:12:29.854Z,3.47
2023-10-18T08:14:58.924Z,2.97
2023-10-18T08:17:44.414Z,2.65
2023-10-18T08:20:51.631Z,3.03
2023-10-18T08:23:36.018Z,2.03
2023-10-18T08:26:05.654Z,2.58
2023-10-18T08:28:42.166Z,2.10
2023-10-18T08:31:17.895Z,1.92
2023-10-18T08:33:47.937Z,2.28
2023-10-18T08:36:15.948Z,3.20
2023-10-18T08:38:45.898Z,3.67
2023-10-18T08:41:17.217Z,2.40
2023-10-18T08:44:00.744Z,3.25
2023-10-18T08:46:28.894Z,2.63
2023-10-18T08:48:58.474Z,2.72
2023-10-18T08:51:28.954Z,2.83
2023-10-18T08:53:58.550Z,3.50
2023-10-18T08:56:30.361Z,4.43
2023-10-18T08:59:02.168Z,2.30
2023-10-18T09:01:35.621Z,3.22
2023-10-18T09:04:02.868Z,2.40
2023-10-18T09:06:33.020Z,2.78
2023-10-18T09:09:06.594Z,3.08
2023-10-18T09:11:37.983Z,2.72
2023-10-18T09:14:08.701Z,2.67
2023-10-18T09:16:38.755Z,3.20
2023-10-18T09:19:09.069Z,2.50
2023-10-18T09:21:44.736Z,2.95
2023-10-18T09:24:13.550Z,2.92
2023-10-18T09:26:45.246Z,3.13
2023-10-18T09:29:13.094Z,2.55
2023-10-18T09:31:54.552Z,2.03
2023-10-18T09:34:24.550Z,2.58
2023-10-18T09:36:57.606Z,6.07
2023-10-18T09:39:38.262Z,2.38
2023-10-18T09:42:13.563Z,4.97
2023-10-18T09:44:42.671Z,3.83
2023-10-18T09:47:11.037Z,2.80
2023-10-18T09:49:41.543Z,3.38
2023-10-18T09:52:13.012Z,2.88
2023-10-18T09:54:50.198Z,2.58
2023-10-18T09:57:25.752Z,3.05
2023-10-18T09:59:56.432Z,2.65
2023-10-18T10:02:25.507Z,2.70
2023-10-18T10:04:55.624Z,2.65
2023-10-18T10:07:40.605Z,2.45
2023-10-18T10:10:10.840Z,3.00
2023-10-18T10:12:43.316Z,2.88
2023-10-18T10:15:15.426Z,2.80
2023-10-18T10:17:48.587Z,3.00
2023-10-18T10:20:22.875Z,3.53
2023-10-18T10:22:51.865Z,2.80
2023-10-18T10:28:16.577Z,2.90
2023-10-18T10:30:44.974Z,2.58
2023-10-18T10:33:14.188Z,3.75
2023-10-18T10:35:47.729Z,2.55
2023-10-18T10:37:36.025Z,3.15
2023-10-18T10:38:19.818Z,2.10
2023-10-18T10:40:50.648Z,2.78
2023-10-18T10:43:20.890Z,3.72
2023-10-18T10:45:55.946Z,3.13
2023-10-18T10:48:37.958Z,2.83
2023-10-18T10:51:14.752Z,3.55
2023-10-18T10:53:49.522Z,2.38
2023-10-18T10:56:21.729Z,3.40
2023-10-18T10:59:04.229Z,2.20
2023-10-18T11:02:07.034Z,1.95
2023-10-18T11:07:26.501Z,2.55
2023-10-18T11:10:00.776Z,2.92
2023-10-18T11:12:30.744Z,3.03
2023-10-18T11:15:03.075Z,3.15
2023-10-18T11:17:31.045Z,2.20
2023-10-18T11:20:00.280Z,2.20
2023-10-18T11:22:31.244Z,2.90
2023-10-18T11:25:01.399Z,2.63
2023-10-18T11:27:34.609Z,2.90
2023-10-18T11:30:16.675Z,1.83
2023-10-18T11:32:44.829Z,3.03
2023-10-18T11:35:14.044Z,3.33
2023-10-18T11:37:45.676Z,2.50
2023-10-18T11:40:17.176Z,2.38
2023-10-18T11:42:55.988Z,2.65
2023-10-18T11:45:29.244Z,2.58
2023-10-18T11:47:57.535Z,2.90
2023-10-18T11:50:25.745Z,2.22
2023-10-18T11:52:53.692Z,2.92
2023-10-18T11:55:24.017Z,2.70
2023-10-18T11:57:52.155Z,2.53
2023-10-18T12:00:27.262Z,3.60
2023-10-18T12:02:57.280Z,3.60
2023-10-18T12:05:29.038Z,2.67
2023-10-18T12:08:02.875Z,2.80
2023-10-18T12:10:36.521Z,2.25
2023-10-18T12:13:07.489Z,3.00
2023-10-18T12:15:35.932Z,2.92
2023-10-18T12:18:06.537Z,2.78
2023-10-18T12:20:38.039Z,2.67
2023-10-18T12:25:39.665Z,2.70
2023-10-18T12:28:13.195Z,1.95
2023-10-18T12:30:42.661Z,2.25
2023-10-18T12:33:20.472Z,2.40
2023-10-18T12:35:50.041Z,2.85
2023-10-18T12:38:22.066Z,3.00
2023-10-18T12:40:59.614Z,2.50
2023-10-18T12:43:28.247Z,3.10
2023-10-18T12:45:56.262Z,2.78
2023-10-18T12:48:25.664Z,2.60
2023-10-18T12:50:54.423Z,2.28
2023-10-18T12:53:36.509Z,3.40
2023-10-18T12:56:32.119Z,2.55
2023-10-18T12:59:00.320Z,2.78
2023-10-18T13:01:34.043Z,2.88
2023-10-18T13:04:07.884Z,2.60
2023-10-18T13:06:43.195Z,1.67
2023-10-18T13:09:19.756Z,2.58
2023-10-18T13:12:01.414Z,2.20
2023-10-18T13:14:32.457Z,2.08
2023-10-18T13:17:03.821Z,2.50
2023-10-18T13:19:34.268Z,2.90
2023-10-18T13:22:02.125Z,2.20
2023-10-18T13:24:32.787Z,2.45
2023-10-18T13:27:01.713Z,3.72
2023-10-18T13:29:33.155Z,3.25
2023-10-18T13:32:11.334Z,2.65
2023-10-18T13:34:43.875Z,2.80
2023-10-18T13:37:15.316Z,2.08
2023-10-18T13:39:48.630Z,2.22
2023-10-18T13:42:16.485Z,2.28
2023-10-18T13:44:44.171Z,2.53
2023-10-18T13:47:14.245Z,2.20
2023-10-18T13:49:45.110Z,2.17
2023-10-18T13:52:13.349Z,2.50
2023-10-18T13:54:42.066Z,2.15
2023-10-18T13:57:10.855Z,2.47
2023-10-18T13:59:39.322Z,1.92
2023-10-18T14:02:08.375Z,2.25
2023-10-18T14:04:36.343Z,3.20
2023-10-18T14:07:07.082Z,2.75
2023-10-18T14:09:36.573Z,1.95
2023-10-18T14:12:05.440Z,2.42
2023-10-18T14:14:37.623Z,2.00
2023-10-18T14:17:05.734Z,2.03
2023-10-18T14:19:34.152Z,2.38
2023-10-18T14:22:03.262Z,2.05
2023-10-18T14:24:32.800Z,2.83
2023-10-18T14:27:01.318Z,2.78
2023-10-18T14:29:30.549Z,2.53
2023-10-18T14:31:58.620Z,2.22
2023-10-18T14:34:29.102Z,2.30
2023-10-18T14:36:57.696Z,2.53
2023-10-18T14:39:38.593Z,2.38
2023-10-18T14:42:09.279Z,2.28
2023-10-18T14:44:37.476Z,3.15
2023-10-18T14:47:07.351Z,2.47
2023-10-18T14:49:35.399Z,1.60
2023-10-18T14:52:12.125Z,1.83
2023-10-18T14:54:42.284Z,1.35
2023-10-18T14:57:11.392Z,2.13
2023-10-18T14:59:39.418Z,2.13
2023-10-18T15:02:07.712Z,1.83
2023-10-18T15:04:35.354Z,1.33
2023-10-18T15:07:03.052Z,2.50
2023-10-18T15:09:30.940Z,2.20
2023-10-18T15:11:58.684Z,1.48
2023-10-18T15:14:28.139Z,2.92
2023-10-18T15:16:56.003Z,2.15
2023-10-18T15:19:23.749Z,1.45
2023-10-18T15:21:51.531Z,2.95
2023-10-18T15:24:19.293Z,2.55
2023-10-18T15:26:46.991Z,2.65
2023-10-18T15:29:18.773Z,2.08
2023-10-18T15:31:48.739Z,2.15
2023-10-18T15:34:16.345Z,2.85
2023-10-18T15:36:48.412Z,2.35
2023-10-18T15:39:19.595Z,6.40
2023-10-18T15:41:47.714Z,7.00
2023-10-18T15:44:16.236Z,4.87
2023-10-18T15:46:43.985Z,5.20
2023-10-18T15:49:15.772Z,6.10
2023-10-18T15:51:44.198Z,6.90
2023-10-18T15:54:12.522Z,6.40
2023-10-18T15:56:40.934Z,5.95
2023-10-18T15:59:10.003Z,6.15
2023-10-18T16:01:51.481Z,5.38
2023-10-18T16:04:27.750Z,7.03
2023-10-18T16:06:56.950Z,6.72
2023-10-18T16:09:28.367Z,6.90
2023-10-18T16:14:23.695Z,7.00
2023-10-18T16:16:52.551Z,4.35
2023-10-18T16:19:20.300Z,5.10
2023-10-18T16:21:49.295Z,6.07
2023-10-18T16:24:18.455Z,6.03
2023-10-18T16:26:46.106Z,7.00
2023-10-18T16:29:14.764Z,6.28
2023-10-18T16:31:43.150Z,6.05
2023-10-18T16:34:10.836Z,5.90
2023-10-18T16:36:39.136Z,5.90
2023-10-18T16:39:09.133Z,6.22
2023-10-18T16:41:36.888Z,6.72
2023-10-18T16:44:04.892Z,4.03
2023-10-18T16:46:32.860Z,5.65
2023-10-18T16:49:00.662Z,4.28
2023-10-18T16:51:29.206Z,4.13
2023-10-18T16:53:57.171Z,3.50
2023-10-18T16:56:26.865Z,3.08
2023-10-18T16:58:57.904Z,4.75
2023-10-18T17:01:26.289Z,6.03
2023-10-18T17:03:54.198Z,5.80
2023-10-18T17:06:22.645Z,6.95
2023-10-18T17:08:51.091Z,5.80
2023-10-18T17:11:19.488Z,6.53
2023-10-18T17:13:49.454Z,6.90
2023-10-18T17:16:18.118Z,2.97
2023-10-18T17:18:46.410Z,6.10
2023-10-18T17:23:45.735Z,5.43
2023-10-18T17:26:16.136Z,6.05
2023-10-18T17:28:44.602Z,5.53
2023-10-18T17:31:14.575Z,4.93
2023-10-18T17:33:42.270Z,3.88
2023-10-18T17:36:11.768Z,5.78
2023-10-18T17:38:39.606Z,5.85
2023-10-18T17:41:07.369Z,4.03
2023-10-18T17:43:35.058Z,5.40
2023-10-18T17:46:02.782Z,4.78
2023-10-18T17:48:31.751Z,4.80
2023-10-18T17:50:59.493Z,3.42
2023-10-18T17:53:27.205Z,5.50
2023-10-18T17:55:55.207Z,5.35
2023-10-18T17:58:28.397Z,4.73
2023-10-18T18:01:06.098Z,5.49
2023-10-18T18:03:35.302Z,2.83
2023-10-18T18:06:11.452Z,5.80
2023-10-18T18:08:39.381Z,5.47
2023-10-18T18:11:09.155Z,5.22
2023-10-18T18:13:38.178Z,5.78
2023-10-18T18:16:07.122Z,5.45
2023-10-18T18:18:36.188Z,5.38
2023-10-18T18:21:05.686Z,4.90
2023-10-18T18:23:33.401Z,5.43
2023-10-18T18:26:07.948Z,5.45
2023-10-18T18:28:37.669Z,5.65
2023-10-18T18:31:05.709Z,4.15
2023-10-18T18:33:33.551Z,5.20
2023-10-18T18:36:02.712Z,5.60
2023-10-18T18:38:30.425Z,3.03
2023-10-18T18:40:58.279Z,5.22
2023-10-18T18:43:28.932Z,5.88
2023-10-18T18:46:00.484Z,5.63
2023-10-18T18:50:56.120Z,4.43
2023-10-18T18:53:25.290Z,4.93
2023-10-18T18:55:53.015Z,5.35
2023-10-18T18:58:21.090Z,4.28
2023-10-18T19:00:49.385Z,4.90
2023-10-18T19:03:17.457Z,5.43
2023-10-18T19:05:46.163Z,6.28
2023-10-18T19:08:14.248Z,4.80
2023-10-18T19:10:43.613Z,4.28
2023-10-18T19:13:12.852Z,5.00
2023-10-18T19:15:40.570Z,4.97
2023-10-18T19:18:08.747Z,5.00
2023-10-18T19:20:36.695Z,4.45
2023-10-18T19:23:04.988Z,3.22
2023-10-18T19:25:32.916Z,4.20
2023-10-18T19:28:02.078Z,3.22
2023-10-18T19:30:29.992Z,2.92
2023-10-18T19:32:57.973Z,2.35
2023-10-18T19:35:25.915Z,2.83
2023-10-18T19:37:54.295Z,2.83
2023-10-18T19:40:23.301Z,2.65
2023-10-18T19:42:51.139Z,2.95
2023-10-18T19:45:23.081Z,2.88
2023-10-18T19:47:50.969Z,3.63
2023-10-18T19:50:19.401Z,2.42
2023-10-18T19:52:47.241Z,2.78
2023-10-18T19:55:14.977Z,2.97
2023-10-18T19:57:43.801Z,3.35
2023-10-18T20:00:16.278Z,3.72
2023-10-18T20:02:45.590Z,2.72
2023-10-18T20:05:15.390Z,3.17
2023-10-18T20:07:43.329Z,3.35
2023-10-18T20:10:12.293Z,3.13
2023-10-18T20:12:40.065Z,3.03
2023-10-18T20:15:09.753Z,3.17
2023-10-18T20:17:37.535Z,2.90
2023-10-18T20:20:10.000Z,3.45
2023-10-18T20:22:40.662Z,3.00
2023-10-18T20:25:09.099Z,3.03
2023-10-18T20:27:36.833Z,2.40
2023-10-18T20:30:07.025Z,3.63
2023-10-18T20:32:35.578Z,2.63
2023-10-18T20:35:03.429Z,2.60
2023-10-18T20:37:32.678Z,2.58
2023-10-18T20:40:03.751Z,3.70
2023-10-18T20:42:33.765Z,3.03
2023-10-18T20:45:02.115Z,3.15
2023-10-18T20:47:29.800Z,2.83
2023-10-18T20:49:57.535Z,2.78
2023-10-18T20:52:32.167Z,2.75
2023-10-18T20:55:01.303Z,3.03
2023-10-18T20:57:32.040Z,2.47
2023-10-18T20:59:59.720Z,2.47
2023-10-18T21:02:27.683Z,2.40
2023-10-18T21:04:56.221Z,3.30
2023-10-18T21:07:26.150Z,4.32
2023-10-18T21:09:54.743Z,2.30
2023-10-18T21:12:27.541Z,2.53
2023-10-18T21:14:55.495Z,3.20
2023-10-18T21:17:23.357Z,2.13
2023-10-18T21:19:51.268Z,3.28
2023-10-18T21:22:21.328Z,3.35
2023-10-18T21:24:50.145Z,3.03
2023-10-18T21:27:18.331Z,3.45
2023-10-18T21:29:47.439Z,3.85
2023-10-18T21:32:15.324Z,2.65
2023-10-18T21:34:44.152Z,1.80
2023-10-18T21:37:12.715Z,2.72
2023-10-18T21:39:40.446Z,2.80
2023-10-18T21:42:08.528Z,2.35
2023-10-18T21:44:36.386Z,2.15
2023-10-18T21:47:05.756Z,2.70
2023-10-18T21:49:33.450Z,2.40
2023-10-18T21:52:01.698Z,3.30
2023-10-18T21:54:29.566Z,3.03
2023-10-18T21:56:57.387Z,2.42
2023-10-18T21:59:25.009Z,2.55
2023-10-18T22:01:53.797Z,2.70
2023-10-18T22:04:23.646Z,2.47
2023-10-18T22:06:55.405Z,2.80
2023-10-18T22:09:32.450Z,3.03
2023-10-18T22:12:03.999Z,4.47
2023-10-18T22:14:32.635Z,3.30
2023-10-18T22:17:06.633Z,2.70
2023-10-18T22:19:37.899Z,2.72
2023-10-18T22:22:13.803Z,3.13
2023-10-18T22:24:41.993Z,2.63
2023-10-18T22:27:15.833Z,3.00
2023-10-18T22:29:48.098Z,3.72
2023-10-18T22:32:19.806Z,2.22
2023-10-18T22:34:51.360Z,2.85
2023-10-18T22:37:21.695Z,2.22
2023-10-18T22:39:51.749Z,2.75
2023-10-18T22:42:23.882Z,2.20
2023-10-18T22:45:10.022Z,2.83
2023-10-18T22:47:45.034Z,2.92
2023-10-18T22:50:22.581Z,2.53
2023-10-18T22:52:53.968Z,3.08
2023-10-18T22:57:55.858Z,2.17
2023-10-18T23:00:32.338Z,3.08
2023-10-18T23:03:02.298Z,2.03
2023-10-18T23:05:32.179Z,1.77
2023-10-18T23:08:00.960Z,2.05
2023-10-18T23:10:46.712Z,2.42
2023-10-18T23:13:38.518Z,2.00
2023-10-18T23:16:11.567Z,2.17
2023-10-18T23:18:55.269Z,2.25
2023-10-18T23:21:29.966Z,2.05
2023-10-18T23:24:08.132Z,2.60
2023-10-18T23:26:53.385Z,2.05
2023-10-18T23:29:21.466Z,2.42
2023-10-18T23:32:10.793Z,2.50
2023-10-18T23:34:44.429Z,2.67
2023-10-18T23:37:15.440Z,2.85
2023-10-18T23:39:44.473Z,2.35
2023-10-18T23:42:15.580Z,2.63
2023-10-18T23:44:56.937Z,2.60
2023-10-18T23:47:51.101Z,2.83
2023-10-18T23:50:24.214Z,2.33
2023-10-18T23:52:58.866Z,2.65
2023-10-18T23:55:35.064Z,2.95
2023-10-18T23:58:06.847Z,2.58
